sensor_id;sensor_type;location;lat;lon;timestamp;P1;durP1;ratioP1;P2;durP2;ratioP2
35897;SDS011;21997;47.118;15.346;2023-04-03T00:00:12;1.83;;;1.20;;
35897;SDS011;21997;47.118;15.346;2023-04-03T00:02:38;1.13;;;1.00;;
35897;SDS011;21997;47.118;15.346;2023-04-03T00:05:05;1.30;;;1.20;;
35897;SDS011;21997;47.118;15.346;2023-04-03T00:07:31;1.77;;;1.50;;
35897;SDS011;21997;47.118;15.346;2023-04-03T00:09:56;1.50;;;1.20;;
35897;SDS011;21997;47.118;15.346;2023-04-03T00:12:22;1.20;;;1.10;;
35897;SDS011;21997;47.118;15.346;2023-04-03T00:14:47;2.40;;;1.20;;
35897;SDS011;21997;47.118;15.346;2023-04-03T00:17:13;1.50;;;1.10;;
35897;SDS011;21997;47.118;15.346;2023-04-03T00:19:38;2.37;;;1.30;;
35897;SDS011;21997;47.118;15.346;2023-04-03T00:22:03;2.73;;;1.50;;
35897;SDS011;21997;47.118;15.346;2023-04-03T00:24:29;1.20;;;1.10;;
35897;SDS011;21997;47.118;15.346;2023-04-03T00:26:54;1.40;;;1.20;;
35897;SDS011;21997;47.118;15.346;2023-04-03T00:29:20;3.00;;;1.30;;
35897;SDS011;21997;47.118;15.346;2023-04-03T00:31:45;2.03;;;1.03;;
35897;SDS011;21997;47.118;15.346;2023-04-03T00:34:10;1.07;;;1.00;;
35897;SDS011;21997;47.118;15.346;2023-04-03T00:36:36;1.87;;;1.43;;
35897;SDS011;21997;47.118;15.346;2023-04-03T00:39:01;1.73;;;1.40;;
35897;SDS011;21997;47.118;15.346;2023-04-03T00:41:27;1.90;;;1.47;;
35897;SDS011;21997;47.118;15.346;2023-04-03T00:43:52;2.20;;;1.20;;
35897;SDS011;21997;47.118;15.346;2023-04-03T00:46:18;1.23;;;1.07;;
35897;SDS011;21997;47.118;15.346;2023-04-03T00:48:44;1.93;;;1.40;;
35897;SDS011;21997;47.118;15.346;2023-04-03T00:51:12;1.20;;;1.10;;
35897;SDS011;21997;47.118;15.346;2023-04-03T00:53:41;1.30;;;1.10;;
35897;SDS011;21997;47.118;15.346;2023-04-03T00:56:10;1.20;;;1.10;;
35897;SDS011;21997;47.118;15.346;2023-04-03T00:59:01;2.03;;;1.63;;
35897;SDS011;21997;47.118;15.346;2023-04-03T01:01:29;1.57;;;1.30;;
35897;SDS011;21997;47.118;15.346;2023-04-03T01:03:55;1.20;;;1.10;;
35897;SDS011;21997;47.118;15.346;2023-04-03T01:06:24;1.93;;;1.30;;
35897;SDS011;21997;47.118;15.346;2023-04-03T01:08:54;1.53;;;1.23;;
35897;SDS011;21997;47.118;15.346;2023-04-03T01:11:20;1.70;;;1.37;;
35897;SDS011;21997;47.118;15.346;2023-04-03T01:13:46;1.20;;;1.10;;
35897;SDS011;21997;47.118;15.346;2023-04-03T01:16:11;1.30;;;1.20;;
35897;SDS011;21997;47.118;15.346;2023-04-03T01:18:37;1.40;;;1.30;;
35897;SDS011;21997;47.118;15.346;2023-04-03T01:21:51;1.67;;;1.40;;
35897;SDS011;21997;47.118;15.346;2023-04-03T01:26:30;2.00;;;1.60;;
35897;SDS011;21997;47.118;15.346;2023-04-03T01:28:58;1.57;;;1.47;;
35897;SDS011;21997;47.118;15.346;2023-04-03T01:31:25;1.50;;;1.30;;
35897;SDS011;21997;47.118;15.346;2023-04-03T01:33:52;1.73;;;1.30;;
35897;SDS011;21997;47.118;15.346;2023-04-03T01:36:19;1.50;;;1.40;;
35897;SDS011;21997;47.118;15.346;2023-04-03T01:38:50;1.80;;;1.70;;
35897;SDS011;21997;47.118;15.346;2023-04-03T01:41:16;1.53;;;1.20;;
35897;SDS011;21997;47.118;15.346;2023-04-03T01:43:42;1.47;;;1.37;;
35897;SDS011;21997;47.118;15.346;2023-04-03T01:46:07;2.27;;;1.63;;
35897;SDS011;21997;47.118;15.346;2023-04-03T01:48:33;1.30;;;1.10;;
35897;SDS011;21997;47.118;15.346;2023-04-03T01:50:58;2.37;;;1.37;;
35897;SDS011;21997;47.118;15.346;2023-04-03T01:53:24;2.00;;;1.50;;
35897;SDS011;21997;47.118;15.346;2023-04-03T01:55:49;2.13;;;1.47;;
35897;SDS011;21997;47.118;15.346;2023-04-03T01:58:15;2.00;;;1.83;;
35897;SDS011;21997;47.118;15.346;2023-04-03T02:00:40;1.43;;;1.30;;
35897;SDS011;21997;47.118;15.346;2023-04-03T02:03:06;1.40;;;1.30;;
35897;SDS011;21997;47.118;15.346;2023-04-03T02:05:31;1.87;;;1.20;;
35897;SDS011;21997;47.118;15.346;2023-04-03T02:07:57;1.50;;;1.40;;
35897;SDS011;21997;47.118;15.346;2023-04-03T02:10:23;1.37;;;1.27;;
35897;SDS011;21997;47.118;15.346;2023-04-03T02:12:48;1.70;;;1.37;;
35897;SDS011;21997;47.118;15.346;2023-04-03T02:15:13;1.60;;;1.27;;
35897;SDS011;21997;47.118;15.346;2023-04-03T02:17:39;1.50;;;1.40;;
35897;SDS011;21997;47.118;15.346;2023-04-03T02:20:04;1.47;;;1.23;;
35897;SDS011;21997;47.118;15.346;2023-04-03T02:22:30;2.67;;;1.77;;
35897;SDS011;21997;47.118;15.346;2023-04-03T02:24:56;2.50;;;1.23;;
35897;SDS011;21997;47.118;15.346;2023-04-03T02:27:21;1.87;;;1.50;;
35897;SDS011;21997;47.118;15.346;2023-04-03T02:29:46;1.30;;;1.20;;
35897;SDS011;21997;47.118;15.346;2023-04-03T02:32:12;1.50;;;1.40;;
35897;SDS011;21997;47.118;15.346;2023-04-03T02:34:37;1.50;;;1.40;;
35897;SDS011;21997;47.118;15.346;2023-04-03T02:37:03;1.37;;;1.07;;
35897;SDS011;21997;47.118;15.346;2023-04-03T02:39:28;1.10;;;1.10;;
35897;SDS011;21997;47.118;15.346;2023-04-03T02:41:53;2.57;;;1.30;;
35897;SDS011;21997;47.118;15.346;2023-04-03T02:44:19;1.60;;;1.23;;
35897;SDS011;21997;47.118;15.346;2023-04-03T02:46:44;1.80;;;1.23;;
35897;SDS011;21997;47.118;15.346;2023-04-03T02:49:10;1.40;;;1.30;;
35897;SDS011;21997;47.118;15.346;2023-04-03T02:51:35;1.40;;;1.30;;
35897;SDS011;21997;47.118;15.346;2023-04-03T02:54:01;2.20;;;1.70;;
35897;SDS011;21997;47.118;15.346;2023-04-03T02:56:26;2.77;;;1.70;;
35897;SDS011;21997;47.118;15.346;2023-04-03T02:58:52;2.30;;;1.60;;
35897;SDS011;21997;47.118;15.346;2023-04-03T03:01:17;1.90;;;1.40;;
35897;SDS011;21997;47.118;15.346;2023-04-03T03:03:43;1.87;;;1.60;;
35897;SDS011;21997;47.118;15.346;2023-04-03T03:06:10;2.20;;;1.67;;
35897;SDS011;21997;47.118;15.346;2023-04-03T03:08:37;1.87;;;1.40;;
35897;SDS011;21997;47.118;15.346;2023-04-03T03:11:03;3.07;;;2.27;;
35897;SDS011;21997;47.118;15.346;2023-04-03T03:13:29;3.00;;;2.73;;
35897;SDS011;21997;47.118;15.346;2023-04-03T03:15:54;3.67;;;2.63;;
35897;SDS011;21997;47.118;15.346;2023-04-03T03:18:20;3.90;;;2.97;;
35897;SDS011;21997;47.118;15.346;2023-04-03T03:20:46;2.10;;;1.90;;
35897;SDS011;21997;47.118;15.346;2023-04-03T03:23:12;2.27;;;2.00;;
35897;SDS011;21997;47.118;15.346;2023-04-03T03:25:38;2.37;;;1.47;;
35897;SDS011;21997;47.118;15.346;2023-04-03T03:28:04;1.30;;;1.20;;
35897;SDS011;21997;47.118;15.346;2023-04-03T03:30:29;1.30;;;1.20;;
35897;SDS011;21997;47.118;15.346;2023-04-03T03:32:55;1.07;;;0.90;;
35897;SDS011;21997;47.118;15.346;2023-04-03T03:35:20;1.60;;;1.13;;
35897;SDS011;21997;47.118;15.346;2023-04-03T03:37:46;1.20;;;0.90;;
35897;SDS011;21997;47.118;15.346;2023-04-03T03:40:11;1.67;;;0.90;;
35897;SDS011;21997;47.118;15.346;2023-04-03T03:42:38;1.80;;;0.93;;
35897;SDS011;21997;47.118;15.346;2023-04-03T03:45:03;0.80;;;0.80;;
35897;SDS011;21997;47.118;15.346;2023-04-03T03:47:29;1.20;;;1.10;;
35897;SDS011;21997;47.118;15.346;2023-04-03T03:49:54;2.23;;;1.30;;
35897;SDS011;21997;47.118;15.346;2023-04-03T03:52:20;0.97;;;0.83;;
35897;SDS011;21997;47.118;15.346;2023-04-03T03:54:45;2.57;;;1.57;;
35897;SDS011;21997;47.118;15.346;2023-04-03T03:57:11;1.13;;;0.93;;
35897;SDS011;21997;47.118;15.346;2023-04-03T03:59:36;1.40;;;1.10;;
35897;SDS011;21997;47.118;15.346;2023-04-03T04:02:02;1.70;;;1.07;;
35897;SDS011;21997;47.118;15.346;2023-04-03T04:04:28;1.73;;;1.30;;
35897;SDS011;21997;47.118;15.346;2023-04-03T04:06:53;2.40;;;1.10;;
35897;SDS011;21997;47.118;15.346;2023-04-03T04:09:19;1.40;;;1.20;;
35897;SDS011;21997;47.118;15.346;2023-04-03T04:11:44;1.23;;;1.13;;
35897;SDS011;21997;47.118;15.346;2023-04-03T04:14:10;1.10;;;1.00;;
35897;SDS011;21997;47.118;15.346;2023-04-03T04:16:37;4.20;;;1.13;;
35897;SDS011;21997;47.118;15.346;2023-04-03T04:19:02;1.73;;;1.13;;
35897;SDS011;21997;47.118;15.346;2023-04-03T04:21:28;1.30;;;1.20;;
35897;SDS011;21997;47.118;15.346;2023-04-03T04:23:53;1.60;;;0.90;;
35897;SDS011;21997;47.118;15.346;2023-04-03T04:26:19;2.43;;;1.20;;
35897;SDS011;21997;47.118;15.346;2023-04-03T04:28:45;2.07;;;1.80;;
35897;SDS011;21997;47.118;15.346;2023-04-03T04:31:10;2.07;;;1.60;;
35897;SDS011;21997;47.118;15.346;2023-04-03T04:33:36;3.87;;;2.20;;
35897;SDS011;21997;47.118;15.346;2023-04-03T04:36:01;3.07;;;2.37;;
35897;SDS011;21997;47.118;15.346;2023-04-03T04:38:26;2.43;;;1.67;;
35897;SDS011;21997;47.118;15.346;2023-04-03T04:40:52;1.77;;;1.30;;
35897;SDS011;21997;47.118;15.346;2023-04-03T04:43:17;4.47;;;1.90;;
35897;SDS011;21997;47.118;15.346;2023-04-03T04:45:43;3.57;;;2.00;;
35897;SDS011;21997;47.118;15.346;2023-04-03T04:48:08;1.93;;;1.57;;
35897;SDS011;21997;47.118;15.346;2023-04-03T04:50:34;2.50;;;1.33;;
35897;SDS011;21997;47.118;15.346;2023-04-03T04:52:59;1.77;;;0.90;;
35897;SDS011;21997;47.118;15.346;2023-04-03T04:55:25;1.77;;;1.07;;
35897;SDS011;21997;47.118;15.346;2023-04-03T04:57:50;3.23;;;1.80;;
35897;SDS011;21997;47.118;15.346;2023-04-03T05:00:16;10.90;;;3.73;;
35897;SDS011;21997;47.118;15.346;2023-04-03T05:02:42;2.53;;;1.90;;
35897;SDS011;21997;47.118;15.346;2023-04-03T05:05:08;2.17;;;1.37;;
35897;SDS011;21997;47.118;15.346;2023-04-03T05:07:33;2.13;;;1.50;;
35897;SDS011;21997;47.118;15.346;2023-04-03T05:10:00;13.13;;;6.27;;
35897;SDS011;21997;47.118;15.346;2023-04-03T05:12:27;16.60;;;8.23;;
35897;SDS011;21997;47.118;15.346;2023-04-03T05:14:53;5.70;;;4.07;;
35897;SDS011;21997;47.118;15.346;2023-04-03T05:17:18;2.50;;;2.10;;
35897;SDS011;21997;47.118;15.346;2023-04-03T05:19:44;1.33;;;1.23;;
35897;SDS011;21997;47.118;15.346;2023-04-03T05:22:10;2.93;;;1.70;;
35897;SDS011;21997;47.118;15.346;2023-04-03T05:24:35;1.67;;;1.30;;
35897;SDS011;21997;47.118;15.346;2023-04-03T05:27:01;1.10;;;0.93;;
35897;SDS011;21997;47.118;15.346;2023-04-03T05:29:26;2.73;;;1.60;;
35897;SDS011;21997;47.118;15.346;2023-04-03T05:31:51;7.33;;;3.50;;
35897;SDS011;21997;47.118;15.346;2023-04-03T05:34:17;4.03;;;1.70;;
35897;SDS011;21997;47.118;15.346;2023-04-03T05:36:43;6.83;;;3.50;;
35897;SDS011;21997;47.118;15.346;2023-04-03T05:39:08;9.13;;;5.40;;
35897;SDS011;21997;47.118;15.346;2023-04-03T05:41:34;4.47;;;2.87;;
35897;SDS011;21997;47.118;15.346;2023-04-03T05:43:59;4.70;;;2.87;;
35897;SDS011;21997;47.118;15.346;2023-04-03T05:46:25;12.60;;;6.80;;
35897;SDS011;21997;47.118;15.346;2023-04-03T05:48:50;6.77;;;3.40;;
35897;SDS011;21997;47.118;15.346;2023-04-03T05:51:17;3.83;;;2.67;;
35897;SDS011;21997;47.118;15.346;2023-04-03T05:53:44;10.30;;;5.87;;
35897;SDS011;21997;47.118;15.346;2023-04-03T05:56:10;6.93;;;4.07;;
35897;SDS011;21997;47.118;15.346;2023-04-03T05:58:35;3.77;;;2.83;;
35897;SDS011;21997;47.118;15.346;2023-04-03T06:01:01;2.00;;;1.50;;
35897;SDS011;21997;47.118;15.346;2023-04-03T06:03:26;1.83;;;1.33;;
35897;SDS011;21997;47.118;15.346;2023-04-03T06:05:52;2.07;;;1.40;;
35897;SDS011;21997;47.118;15.346;2023-04-03T06:08:18;0.83;;;0.83;;
35897;SDS011;21997;47.118;15.346;2023-04-03T06:10:43;1.60;;;0.87;;
35897;SDS011;21997;47.118;15.346;2023-04-03T06:13:09;1.00;;;0.70;;
35897;SDS011;21997;47.118;15.346;2023-04-03T06:15:35;2.07;;;1.47;;
35897;SDS011;21997;47.118;15.346;2023-04-03T06:18:01;1.20;;;1.10;;
35897;SDS011;21997;47.118;15.346;2023-04-03T06:20:26;1.30;;;0.77;;
35897;SDS011;21997;47.118;15.346;2023-04-03T06:22:51;1.20;;;0.80;;
35897;SDS011;21997;47.118;15.346;2023-04-03T06:25:17;2.77;;;0.70;;
35897;SDS011;21997;47.118;15.346;2023-04-03T06:27:44;1.80;;;0.60;;
35897;SDS011;21997;47.118;15.346;2023-04-03T06:30:11;3.70;;;2.37;;
35897;SDS011;21997;47.118;15.346;2023-04-03T06:32:37;1.83;;;1.63;;
35897;SDS011;21997;47.118;15.346;2023-04-03T06:35:03;4.10;;;1.47;;
35897;SDS011;21997;47.118;15.346;2023-04-03T06:37:30;1.90;;;1.60;;
35897;SDS011;21997;47.118;15.346;2023-04-03T06:39:57;2.50;;;2.13;;
35897;SDS011;21997;47.118;15.346;2023-04-03T06:42:23;5.60;;;2.53;;
35897;SDS011;21997;47.118;15.346;2023-04-03T06:44:48;6.10;;;2.43;;
35897;SDS011;21997;47.118;15.346;2023-04-03T06:47:15;4.40;;;2.10;;
35897;SDS011;21997;47.118;15.346;2023-04-03T06:49:41;3.00;;;1.47;;
35897;SDS011;21997;47.118;15.346;2023-04-03T06:52:07;3.43;;;2.20;;
35897;SDS011;21997;47.118;15.346;2023-04-03T06:54:32;5.60;;;3.77;;
35897;SDS011;21997;47.118;15.346;2023-04-03T06:56:58;7.23;;;1.97;;
35897;SDS011;21997;47.118;15.346;2023-04-03T06:59:23;4.43;;;2.13;;
35897;SDS011;21997;47.118;15.346;2023-04-03T07:01:49;1.47;;;1.10;;
35897;SDS011;21997;47.118;15.346;2023-04-03T07:04:15;4.60;;;2.53;;
35897;SDS011;21997;47.118;15.346;2023-04-03T07:06:41;2.53;;;1.67;;
35897;SDS011;21997;47.118;15.346;2023-04-03T07:09:07;4.40;;;2.20;;
35897;SDS011;21997;47.118;15.346;2023-04-03T07:11:34;1.97;;;1.40;;
35897;SDS011;21997;47.118;15.346;2023-04-03T07:14:01;9.90;;;1.50;;
35897;SDS011;21997;47.118;15.346;2023-04-03T07:16:26;2.60;;;1.37;;
35897;SDS011;21997;47.118;15.346;2023-04-03T07:18:52;2.87;;;0.90;;
35897;SDS011;21997;47.118;15.346;2023-04-03T07:21:17;2.20;;;1.30;;
35897;SDS011;21997;47.118;15.346;2023-04-03T07:23:42;1.27;;;1.00;;
35897;SDS011;21997;47.118;15.346;2023-04-03T07:26:08;5.37;;;4.50;;
35897;SDS011;21997;47.118;15.346;2023-04-03T07:28:34;2.60;;;1.63;;
35897;SDS011;21997;47.118;15.346;2023-04-03T07:31:05;1.07;;;0.60;;
35897;SDS011;21997;47.118;15.346;2023-04-03T07:33:33;1.03;;;0.60;;
35897;SDS011;21997;47.118;15.346;2023-04-03T07:36:00;0.47;;;0.47;;
35897;SDS011;21997;47.118;15.346;2023-04-03T07:38:26;0.60;;;0.60;;
35897;SDS011;21997;47.118;15.346;2023-04-03T07:40:51;1.27;;;0.80;;
35897;SDS011;21997;47.118;15.346;2023-04-03T07:43:18;0.90;;;0.80;;
35897;SDS011;21997;47.118;15.346;2023-04-03T07:45:45;1.27;;;0.93;;
35897;SDS011;21997;47.118;15.346;2023-04-03T07:48:12;0.80;;;0.70;;
35897;SDS011;21997;47.118;15.346;2023-04-03T07:50:41;0.90;;;0.70;;
35897;SDS011;21997;47.118;15.346;2023-04-03T07:53:06;1.27;;;0.70;;
35897;SDS011;21997;47.118;15.346;2023-04-03T07:55:32;0.83;;;0.80;;
35897;SDS011;21997;47.118;15.346;2023-04-03T07:57:58;0.90;;;0.80;;
35897;SDS011;21997;47.118;15.346;2023-04-03T08:00:24;0.90;;;0.70;;
35897;SDS011;21997;47.118;15.346;2023-04-03T08:02:49;0.87;;;0.63;;
35897;SDS011;21997;47.118;15.346;2023-04-03T08:05:17;0.87;;;0.70;;
35897;SDS011;21997;47.118;15.346;2023-04-03T08:07:43;0.63;;;0.60;;
35897;SDS011;21997;47.118;15.346;2023-04-03T08:10:09;0.70;;;0.60;;
35897;SDS011;21997;47.118;15.346;2023-04-03T08:12:34;3.57;;;0.60;;
35897;SDS011;21997;47.118;15.346;2023-04-03T08:15:01;0.90;;;0.47;;
35897;SDS011;21997;47.118;15.346;2023-04-03T08:17:27;0.90;;;0.70;;
35897;SDS011;21997;47.118;15.346;2023-04-03T08:19:53;0.67;;;0.63;;
35897;SDS011;21997;47.118;15.346;2023-04-03T08:22:18;0.70;;;0.60;;
35897;SDS011;21997;47.118;15.346;2023-04-03T08:24:44;1.00;;;0.60;;
35897;SDS011;21997;47.118;15.346;2023-04-03T08:27:10;0.80;;;0.60;;
35897;SDS011;21997;47.118;15.346;2023-04-03T08:29:35;2.63;;;0.63;;
35897;SDS011;21997;47.118;15.346;2023-04-03T08:32:02;0.60;;;0.50;;
35897;SDS011;21997;47.118;15.346;2023-04-03T08:34:28;1.23;;;1.03;;
35897;SDS011;21997;47.118;15.346;2023-04-03T08:36:54;1.10;;;0.70;;
35897;SDS011;21997;47.118;15.346;2023-04-03T08:39:20;1.20;;;0.70;;
35897;SDS011;21997;47.118;15.346;2023-04-03T08:41:45;0.87;;;0.60;;
35897;SDS011;21997;47.118;15.346;2023-04-03T08:50:02;0.70;;;0.60;;
35897;SDS011;21997;47.118;15.346;2023-04-03T08:52:38;0.90;;;0.70;;
35897;SDS011;21997;47.118;15.346;2023-04-03T08:57:48;0.93;;;0.50;;
35897;SDS011;21997;47.118;15.346;2023-04-03T09:00:20;3.27;;;0.70;;
35897;SDS011;21997;47.118;15.346;2023-04-03T09:02:49;0.93;;;0.57;;
35897;SDS011;21997;47.118;15.346;2023-04-03T09:05:19;0.70;;;0.60;;
35897;SDS011;21997;47.118;15.346;2023-04-03T09:08:04;0.67;;;0.60;;
35897;SDS011;21997;47.118;15.346;2023-04-03T09:10:33;12.37;;;2.10;;
35897;SDS011;21997;47.118;15.346;2023-04-03T09:15:44;1.00;;;0.60;;
35897;SDS011;21997;47.118;15.346;2023-04-03T09:18:15;1.20;;;0.93;;
35897;SDS011;21997;47.118;15.346;2023-04-03T09:23:30;4.00;;;1.20;;
35897;SDS011;21997;47.118;15.346;2023-04-03T09:26:01;1.63;;;0.73;;
35897;SDS011;21997;47.118;15.346;2023-04-03T09:28:30;0.50;;;0.50;;
35897;SDS011;21997;47.118;15.346;2023-04-03T09:30:59;1.13;;;0.60;;
35897;SDS011;21997;47.118;15.346;2023-04-03T09:33:25;0.60;;;0.52;;
35897;SDS011;21997;47.118;15.346;2023-04-03T09:35:51;4.40;;;0.60;;
35897;SDS011;21997;47.118;15.346;2023-04-03T09:38:17;0.80;;;0.70;;
35897;SDS011;21997;47.118;15.346;2023-04-03T09:40:46;0.93;;;0.67;;
35897;SDS011;21997;47.118;15.346;2023-04-03T09:45:46;0.60;;;0.60;;
35897;SDS011;21997;47.118;15.346;2023-04-03T09:48:15;2.00;;;0.40;;
35897;SDS011;21997;47.118;15.346;2023-04-03T09:55:58;0.57;;;0.37;;
35897;SDS011;21997;47.118;15.346;2023-04-03T09:58:28;2.33;;;0.60;;
35897;SDS011;21997;47.118;15.346;2023-04-03T10:00:58;0.57;;;0.47;;
35897;SDS011;21997;47.118;15.346;2023-04-03T10:03:27;0.80;;;0.60;;
35897;SDS011;21997;47.118;15.346;2023-04-03T10:05:57;1.47;;;0.60;;
35897;SDS011;21997;47.118;15.346;2023-04-03T10:11:05;2.13;;;1.30;;
35897;SDS011;21997;47.118;15.346;2023-04-03T10:13:32;1.87;;;1.00;;
35897;SDS011;21997;47.118;15.346;2023-04-03T10:16:08;3.17;;;0.77;;
35897;SDS011;21997;47.118;15.346;2023-04-03T10:21:13;5.00;;;2.57;;
35897;SDS011;21997;47.118;15.346;2023-04-03T10:23:44;1.30;;;1.10;;
35897;SDS011;21997;47.118;15.346;2023-04-03T10:26:17;0.93;;;0.63;;
35897;SDS011;21997;47.118;15.346;2023-04-03T10:28:52;0.90;;;0.50;;
35897;SDS011;21997;47.118;15.346;2023-04-03T10:31:46;0.87;;;0.70;;
35897;SDS011;21997;47.118;15.346;2023-04-03T10:34:28;0.97;;;0.73;;
35897;SDS011;21997;47.118;15.346;2023-04-03T10:42:07;0.43;;;0.43;;
35897;SDS011;21997;47.118;15.346;2023-04-03T10:44:52;2.57;;;1.80;;
35897;SDS011;21997;47.118;15.346;2023-04-03T10:56:15;1.90;;;1.10;;
35897;SDS011;21997;47.118;15.346;2023-04-03T10:58:45;0.98;;;0.88;;
35897;SDS011;21997;47.118;15.346;2023-04-03T11:01:35;0.55;;;0.55;;
35897;SDS011;21997;47.118;15.346;2023-04-03T11:04:00;1.35;;;0.65;;
35897;SDS011;21997;47.118;15.346;2023-04-03T11:06:39;1.05;;;0.95;;
35897;SDS011;21997;47.118;15.346;2023-04-03T11:11:43;1.52;;;1.23;;
35897;SDS011;21997;47.118;15.346;2023-04-03T11:14:11;1.73;;;0.70;;
35897;SDS011;21997;47.118;15.346;2023-04-03T11:17:05;1.52;;;0.90;;
35897;SDS011;21997;47.118;15.346;2023-04-03T11:22:28;1.15;;;0.68;;
35897;SDS011;21997;47.118;15.346;2023-04-03T11:25:19;1.05;;;0.70;;
35897;SDS011;21997;47.118;15.346;2023-04-03T11:27:50;1.08;;;0.80;;
35897;SDS011;21997;47.118;15.346;2023-04-03T11:30:20;1.17;;;0.82;;
35897;SDS011;21997;47.118;15.346;2023-04-03T11:33:02;1.98;;;0.70;;
35897;SDS011;21997;47.118;15.346;2023-04-03T11:35:30;1.10;;;0.80;;
35897;SDS011;21997;47.118;15.346;2023-04-03T11:37:56;0.77;;;0.77;;
35897;SDS011;21997;47.118;15.346;2023-04-03T11:42:55;1.27;;;0.60;;
35897;SDS011;21997;47.118;15.346;2023-04-03T11:45:40;1.95;;;1.30;;
35897;SDS011;21997;47.118;15.346;2023-04-03T11:50:47;1.05;;;0.90;;
35897;SDS011;21997;47.118;15.346;2023-04-03T11:58:15;0.93;;;0.57;;
35897;SDS011;21997;47.118;15.346;2023-04-03T12:08:29;2.70;;;0.68;;
35897;SDS011;21997;47.118;15.346;2023-04-03T12:16:02;0.95;;;0.88;;
35897;SDS011;21997;47.118;15.346;2023-04-03T12:21:13;1.73;;;1.02;;
35897;SDS011;21997;47.118;15.346;2023-04-03T12:26:44;1.05;;;0.80;;
35897;SDS011;21997;47.118;15.346;2023-04-03T12:43:02;1.25;;;0.90;;
35897;SDS011;21997;47.118;15.346;2023-04-03T12:45:46;1.10;;;0.63;;
35897;SDS011;21997;47.118;15.346;2023-04-03T12:48:20;1.08;;;0.85;;
35897;SDS011;21997;47.118;15.346;2023-04-03T12:50:52;0.75;;;0.63;;
35897;SDS011;21997;47.118;15.346;2023-04-03T12:53:21;0.70;;;0.43;;
35897;SDS011;21997;47.118;15.346;2023-04-03T12:55:55;0.73;;;0.73;;
35897;SDS011;21997;47.118;15.346;2023-04-03T12:58:41;1.15;;;0.80;;
35897;SDS011;21997;47.118;15.346;2023-04-03T13:01:10;1.92;;;0.88;;
35897;SDS011;21997;47.118;15.346;2023-04-03T13:03:40;1.40;;;1.03;;
35897;SDS011;21997;47.118;15.346;2023-04-03T13:06:19;1.90;;;1.07;;
35897;SDS011;21997;47.118;15.346;2023-04-03T13:08:54;0.97;;;0.60;;
35897;SDS011;21997;47.118;15.346;2023-04-03T13:11:38;1.20;;;0.90;;
35897;SDS011;21997;47.118;15.346;2023-04-03T13:14:14;1.30;;;0.63;;
35897;SDS011;21997;47.118;15.346;2023-04-03T13:16:42;2.42;;;0.60;;
35897;SDS011;21997;47.118;15.346;2023-04-03T13:19:22;0.80;;;0.60;;
35897;SDS011;21997;47.118;15.346;2023-04-03T13:21:52;1.63;;;1.00;;
35897;SDS011;21997;47.118;15.346;2023-04-03T13:24:32;3.08;;;1.00;;
35897;SDS011;21997;47.118;15.346;2023-04-03T13:27:00;0.70;;;0.55;;
35897;SDS011;21997;47.118;15.346;2023-04-03T13:29:35;0.85;;;0.70;;
35897;SDS011;21997;47.118;15.346;2023-04-03T13:32:02;2.50;;;0.88;;
35897;SDS011;21997;47.118;15.346;2023-04-03T13:34:29;1.38;;;0.88;;
35897;SDS011;21997;47.118;15.346;2023-04-03T13:37:02;1.67;;;0.82;;
35897;SDS011;21997;47.118;15.346;2023-04-03T13:39:33;1.50;;;1.03;;
35897;SDS011;21997;47.118;15.346;2023-04-03T13:42:00;0.83;;;0.50;;
35897;SDS011;21997;47.118;15.346;2023-04-03T13:44:30;1.10;;;0.70;;
35897;SDS011;21997;47.118;15.346;2023-04-03T13:49:58;1.67;;;0.90;;
35897;SDS011;21997;47.118;15.346;2023-04-03T13:52:34;0.83;;;0.80;;
35897;SDS011;21997;47.118;15.346;2023-04-03T13:57:50;1.00;;;0.70;;
35897;SDS011;21997;47.118;15.346;2023-04-03T14:00:26;1.30;;;0.70;;
35897;SDS011;21997;47.118;15.346;2023-04-03T14:02:54;2.57;;;0.70;;
35897;SDS011;21997;47.118;15.346;2023-04-03T14:05:21;1.17;;;0.90;;
35897;SDS011;21997;47.118;15.346;2023-04-03T14:07:48;1.13;;;0.60;;
35897;SDS011;21997;47.118;15.346;2023-04-03T14:10:13;0.93;;;0.77;;
35897;SDS011;21997;47.118;15.346;2023-04-03T14:12:39;0.90;;;0.77;;
35897;SDS011;21997;47.118;15.346;2023-04-03T14:15:27;1.03;;;0.70;;
35897;SDS011;21997;47.118;15.346;2023-04-03T14:17:52;0.90;;;0.60;;
35897;SDS011;21997;47.118;15.346;2023-04-03T14:20:19;1.23;;;0.80;;
35897;SDS011;21997;47.118;15.346;2023-04-03T14:22:48;1.30;;;0.80;;
35897;SDS011;21997;47.118;15.346;2023-04-03T14:25:14;1.83;;;0.60;;
35897;SDS011;21997;47.118;15.346;2023-04-03T14:27:44;0.70;;;0.60;;
35897;SDS011;21997;47.118;15.346;2023-04-03T14:30:23;0.83;;;0.73;;
35897;SDS011;21997;47.118;15.346;2023-04-03T14:32:50;1.63;;;1.20;;
35897;SDS011;21997;47.118;15.346;2023-04-03T14:35:16;2.37;;;1.17;;
35897;SDS011;21997;47.118;15.346;2023-04-03T14:37:43;3.07;;;1.20;;
35897;SDS011;21997;47.118;15.346;2023-04-03T14:40:14;1.33;;;1.00;;
35897;SDS011;21997;47.118;15.346;2023-04-03T14:42:41;1.13;;;0.80;;
35897;SDS011;21997;47.118;15.346;2023-04-03T14:45:08;1.50;;;1.40;;
35897;SDS011;21997;47.118;15.346;2023-04-03T14:47:37;0.83;;;0.83;;
35897;SDS011;21997;47.118;15.346;2023-04-03T14:50:06;1.47;;;0.93;;
35897;SDS011;21997;47.118;15.346;2023-04-03T14:52:33;2.10;;;0.80;;
35897;SDS011;21997;47.118;15.346;2023-04-03T14:55:00;0.97;;;0.70;;
35897;SDS011;21997;47.118;15.346;2023-04-03T14:57:27;1.10;;;1.00;;
35897;SDS011;21997;47.118;15.346;2023-04-03T14:59:53;1.33;;;0.97;;
35897;SDS011;21997;47.118;15.346;2023-04-03T15:02:34;2.20;;;0.80;;
35897;SDS011;21997;47.118;15.346;2023-04-03T15:05:02;3.00;;;0.90;;
35897;SDS011;21997;47.118;15.346;2023-04-03T15:07:30;3.23;;;1.30;;
35897;SDS011;21997;47.118;15.346;2023-04-03T15:09:59;2.33;;;1.20;;
35897;SDS011;21997;47.118;15.346;2023-04-03T15:12:27;2.00;;;1.10;;
35897;SDS011;21997;47.118;15.346;2023-04-03T15:14:52;1.73;;;1.00;;
35897;SDS011;21997;47.118;15.346;2023-04-03T15:17:19;1.30;;;0.90;;
35897;SDS011;21997;47.118;15.346;2023-04-03T15:19:47;1.70;;;1.40;;
35897;SDS011;21997;47.118;15.346;2023-04-03T15:22:13;2.63;;;1.23;;
35897;SDS011;21997;47.118;15.346;2023-04-03T15:24:40;1.10;;;1.00;;
35897;SDS011;21997;47.118;15.346;2023-04-03T15:27:06;1.93;;;1.40;;
35897;SDS011;21997;47.118;15.346;2023-04-03T15:29:32;1.40;;;1.10;;
35897;SDS011;21997;47.118;15.346;2023-04-03T15:31:57;3.17;;;1.30;;
35897;SDS011;21997;47.118;15.346;2023-04-03T15:34:22;3.03;;;1.20;;
35897;SDS011;21997;47.118;15.346;2023-04-03T15:36:48;3.47;;;1.40;;
35897;SDS011;21997;47.118;15.346;2023-04-03T15:39:14;1.93;;;1.20;;
35897;SDS011;21997;47.118;15.346;2023-04-03T15:41:41;1.77;;;1.50;;
35897;SDS011;21997;47.118;15.346;2023-04-03T15:44:07;1.10;;;1.00;;
35897;SDS011;21997;47.118;15.346;2023-04-03T15:46:32;2.73;;;1.73;;
35897;SDS011;21997;47.118;15.346;2023-04-03T15:48:58;1.67;;;1.23;;
35897;SDS011;21997;47.118;15.346;2023-04-03T15:51:23;1.10;;;1.00;;
35897;SDS011;21997;47.118;15.346;2023-04-03T15:53:48;2.47;;;1.30;;
35897;SDS011;21997;47.118;15.346;2023-04-03T15:56:14;1.43;;;1.17;;
35897;SDS011;21997;47.118;15.346;2023-04-03T15:58:39;1.47;;;1.00;;
35897;SDS011;21997;47.118;15.346;2023-04-03T16:01:05;1.77;;;1.20;;
35897;SDS011;21997;47.118;15.346;2023-04-03T16:03:30;1.80;;;1.53;;
35897;SDS011;21997;47.118;15.346;2023-04-03T16:05:56;3.27;;;1.10;;
35897;SDS011;21997;47.118;15.346;2023-04-03T16:08:22;2.13;;;1.10;;
35897;SDS011;21997;47.118;15.346;2023-04-03T16:10:47;1.30;;;1.20;;
35897;SDS011;21997;47.118;15.346;2023-04-03T16:13:13;2.37;;;1.50;;